Main page
METAR-TAF:

METAR-TAF

Airports :

Belfast City, Northern Ireland

George Best Belfast City Airport

latitude: 54-36N, longitude: 005-53W, elevation: 5 m

Current weather observation

The report was made 16 minutes ago, at 21:20 UTC
Wind 10 kt from the South
Temperature 8°C
Humidity 81%
Pressure 999 hPa
Visibility 10 km or more

METAR: EGAC 232120Z AUTO 19010KT 9999 NCD 08/05 Q0999

Time: 21:36 (21:36 UTC)

Forecast

The report was made 4 hours and 32 minutes ago, at 17:04 UTC
Forecast valid from 23 at 18 UTC to 23 at 22 UTC
Wind 12 kt from the Southwest
Visibility 10 km or more
Few clouds at a height of 1800 ft
Scattered clouds at a height of 3000 ft
Becoming
from 23 at 19 UTC to 23 at 22 UTC
Wind 12 kt from the South

TAF: EGAC 231704Z 2318/2322 23012KT 9999 FEW018 SCT030 BECMG 2319/2322 17012KT

Weather observations and forecasts of more than 4000 airports (METAR and TAF reports).

The available stations are represented by yellow and red dots on the map.

Hover mouse over dot to see the name of the station.

Then click to see weather observations and forecasts.

To change the map : click on the green buttons with a black cross to zoom in, on the green button with a dash to zoom out, or on the green arrows for adjacent maps.


METAR-TAF: